Terminal Aerodrome Forecast
Issued by NWS

Current Version | Previous Version | Graphics & Text | Print | Product List | Glossary On
Versions: 1 2 3 4 5 6 7 8 9 10 11 12 13 14 15 16
000
FTUS41 KPBZ 270529
TAFMGW
TAF
KMGW 270529Z 2706/2806 VRB04KT P6SM BKN060
     FM270900 VRB03KT 4SM BR SCT025
      TEMPO 2709/2712 2SM BR
     FM271400 35005KT P6SM BKN035
     FM280200 VRB03KT P6SM SCT035=

USA.gov is the U.S. government's official web portal to all federal, state and local government web resources and services.